Airfield :
LOGIN :

Register | Disclaimer

   EN    FR    IT 

 










Legend :    VFR   Marginal VFR   IFR   Intensive IFR   Very Intensive IFR
Visi :
Ceiling :
>= 8 km
>= 3000ft
5 to 8 km
1000 to 3000 ft
1500m to 5 km
500 to 1000 ft
800 to 1500m
200 to 500 ft
< 800m
< 200 ft
Symbols :   Thunderstorms  Fog  Heavy snow  Heavy precipitations  Wind > 20 kt
SIGMETs :     Misc.  Thunderstorms  Icing  Turbulence  Mountain Waves  Volcanic Ashes






- Airport Elevation : 616 ft
- IATA code : PUF


LFBP - Pau

CURRENT METAR :
  • 191000Z AUTO 24012KT 9999 SCT018 SCT026 18/13 Q1022 TEMPO 3000 SHRA BKN025TCU

EXPIRED METARs :
  • 190930Z AUTO 23011KT 200V260 9999 FEW016 BKN064 BKN074 17/13 Q1022 TEMPO 3000 SHRA BKN025TCU
  • 190900Z AUTO 24012KT 9999 FEW016 BKN066 17/14 Q1022 TEMPO 3000 SHRA BKN025TCU
  • 190830Z AUTO 22009KT 9999 FEW031 BKN064 BKN210 17/14 Q1022 TEMPO 3000 SHRA BKN025TCU
  • 190800Z AUTO 21008KT 180V240 9999 FEW033 SCT049 16/14 Q1021 TEMPO 3000 SHRA BKN025TCU
  • 190730Z AUTO 21008KT 180V240 9999 FEW016 BKN066 15/14 Q1021 TEMPO 3000 SHRA BKN025TCU

TAF TAF LFBP
Valid from the 19 at 06:00 until the 20 at 06:00 UTC


190500Z 1906/2006 26010KT 9999 SCT030 BKN040
TEMPO 1906/1920 3000 SHRA BKN025TCU
TEMPO 2003/2006 3000 SHRA FEW025CB BKN030TCU



MET'MAP, your aeronautical weather chart ! - Copyright ORBIFLY December 2007 - Disclaimer

ORBIFLY MET'MAP TEAM :

Programming & Development : Alexandra Zaïnal
Concept & original design : Baudouin d'Aumeries
Assistance for programming : Marc-Olivier Méhu
Technical & hardware support : Manuel Goepfert

Contact : metmap@orbifly.com




SOURCES & CREDITS :

   NOAA